createdAt,value
2022-08-17T00:01:30.370Z,38.63
2022-08-17T00:04:19.038Z,36.63
2022-08-17T00:06:46.265Z,37.80
2022-08-17T00:09:18.398Z,36.85
2022-08-17T00:12:42.663Z,37.22
2022-08-17T00:14:36.062Z,38.90
2022-08-17T00:17:04.749Z,39.15
2022-08-17T00:19:32.936Z,38.03
2022-08-17T00:22:31.423Z,38.65
2022-08-17T00:24:50.118Z,37.70
2022-08-17T00:27:17.316Z,39.58
2022-08-17T00:29:45.827Z,36.58
2022-08-17T00:33:14.103Z,37.90
2022-08-17T00:35:05.212Z,37.95
2022-08-17T00:37:32.004Z,36.22
2022-08-17T00:39:58.888Z,38.63
2022-08-17T00:42:30.778Z,38.03
2022-08-17T00:44:58.513Z,38.75
2022-08-17T00:47:25.419Z,38.53
2022-08-17T00:49:52.310Z,38.13
2022-08-17T00:52:23.172Z,39.08
2022-08-17T00:54:53.945Z,37.28
2022-08-17T00:57:30.006Z,38.75
2022-08-17T01:00:07.660Z,37.72
2022-08-17T01:02:41.566Z,38.28
2022-08-17T01:05:21.557Z,41.60
2022-08-17T01:07:50.880Z,42.80
2022-08-17T01:10:59.823Z,43.97
2022-08-17T01:13:10.739Z,41.92
2022-08-17T01:15:41.449Z,43.17
2022-08-17T01:20:59.070Z,40.95
2022-08-17T01:23:28.856Z,44.33
2022-08-17T01:25:58.706Z,38.00
2022-08-17T01:28:53.018Z,42.90
2022-08-17T01:31:15.207Z,44.13
2022-08-17T01:33:42.237Z,40.45
2022-08-17T01:36:09.257Z,45.30
2022-08-17T01:38:38.337Z,44.78
2022-08-17T01:41:12.527Z,45.20
2022-08-17T01:43:50.764Z,47.40
2022-08-17T01:46:24.176Z,45.35
2022-08-17T01:48:51.546Z,47.08
2022-08-17T01:51:19.812Z,46.83
2022-08-17T01:53:51.520Z,44.63
2022-08-17T01:56:22.973Z,43.35
2022-08-17T01:58:50.157Z,45.38
2022-08-17T02:01:23.295Z,45.80
2022-08-17T02:03:56.210Z,43.35
2022-08-17T02:06:30.212Z,42.70
2022-08-17T02:09:02.795Z,47.45
2022-08-17T02:11:34.901Z,42.47
2022-08-17T02:14:03.153Z,44.10
2022-08-17T02:16:37.797Z,42.67
2022-08-17T02:19:12.257Z,44.85
2022-08-17T02:21:40.919Z,44.60
2022-08-17T02:24:11.648Z,42.78
2022-08-17T02:26:38.886Z,45.03
2022-08-17T02:29:05.681Z,46.40
2022-08-17T02:31:32.679Z,45.70
2022-08-17T02:34:04.195Z,47.10
2022-08-17T02:36:34.316Z,47.70
2022-08-17T02:39:06.719Z,46.47
2022-08-17T02:41:33.931Z,45.60
2022-08-17T02:44:01.134Z,46.33
2022-08-17T02:46:28.384Z,46.88
2022-08-17T02:48:55.718Z,48.42
2022-08-17T02:51:22.918Z,48.05
2022-08-17T02:53:49.795Z,50.05
2022-08-17T02:56:16.690Z,47.45
2022-08-17T02:58:43.470Z,46.58
2022-08-17T03:01:10.693Z,47.92
2022-08-17T03:03:38.905Z,48.38
2022-08-17T03:06:07.531Z,49.58
2022-08-17T03:08:35.009Z,46.70
2022-08-17T03:11:01.902Z,47.75
2022-08-17T03:13:28.718Z,48.17
2022-08-17T03:15:55.576Z,50.72
2022-08-17T03:18:25.617Z,50.67
2022-08-17T03:20:55.505Z,48.50
2022-08-17T03:23:24.068Z,47.35
2022-08-17T03:25:53.884Z,47.08
2022-08-17T03:28:21.774Z,47.25
2022-08-17T03:30:51.059Z,46.47
2022-08-17T03:33:19.524Z,47.58
2022-08-17T03:35:46.586Z,48.70
2022-08-17T03:38:17.027Z,48.20
2022-08-17T03:40:58.835Z,46.22
2022-08-17T03:43:30.783Z,47.25
2022-08-17T03:46:34.698Z,47.97
2022-08-17T03:49:25.776Z,46.95
2022-08-17T03:52:12.173Z,47.47
2022-08-17T03:54:58.113Z,46.80
2022-08-17T03:59:53.804Z,45.15
2022-08-17T04:02:28.529Z,46.80
2022-08-17T04:04:55.920Z,48.53
2022-08-17T04:07:25.779Z,46.60
2022-08-17T04:09:52.854Z,48.42
2022-08-17T04:12:21.945Z,49.08
2022-08-17T04:14:53.286Z,48.28
2022-08-17T04:17:24.250Z,49.78
2022-08-17T04:19:51.721Z,47.40
2022-08-17T04:22:30.291Z,50.70
2022-08-17T04:25:04.845Z,53.17
2022-08-17T04:27:31.822Z,49.25
2022-08-17T04:29:58.721Z,49.75
2022-08-17T04:33:02.905Z,50.17
2022-08-17T04:35:12.438Z,52.30
2022-08-17T04:37:39.250Z,49.55
2022-08-17T04:40:27.378Z,51.92
2022-08-17T04:43:07.410Z,52.38
2022-08-17T04:45:34.651Z,50.97
2022-08-17T04:48:01.506Z,50.75
2022-08-17T04:50:28.402Z,50.75
2022-08-17T04:52:55.515Z,51.30
2022-08-17T04:55:22.565Z,52.63
2022-08-17T04:57:49.400Z,51.55
2022-08-17T05:00:16.330Z,50.72
2022-08-17T05:02:51.101Z,50.88
2022-08-17T05:05:20.840Z,48.35
2022-08-17T05:07:51.649Z,51.90
2022-08-17T05:10:20.043Z,50.00
2022-08-17T05:12:47.035Z,50.35
2022-08-17T05:15:16.289Z,47.95
2022-08-17T05:17:43.924Z,49.45
2022-08-17T05:20:11.674Z,49.58
2022-08-17T05:22:56.724Z,48.53
2022-08-17T05:25:29.459Z,48.07
2022-08-17T05:27:59.880Z,50.47
2022-08-17T05:30:29.002Z,50.13
2022-08-17T05:33:00.476Z,49.95
2022-08-17T05:35:29.800Z,49.30
2022-08-17T05:37:56.873Z,52.88
2022-08-17T05:40:25.988Z,49.20
2022-08-17T05:43:07.880Z,50.10
2022-08-17T05:45:55.907Z,51.60
2022-08-17T05:48:39.795Z,53.70
2022-08-17T05:51:33.793Z,52.60
2022-08-17T05:54:17.625Z,49.88
2022-08-17T05:56:59.465Z,50.40
2022-08-17T05:59:48.231Z,52.45
2022-08-17T06:02:28.042Z,51.95
2022-08-17T06:05:11.086Z,55.17
2022-08-17T06:07:40.838Z,57.63
2022-08-17T06:10:29.304Z,57.50
2022-08-17T06:13:28.756Z,52.45
2022-08-17T06:16:04.362Z,53.08
2022-08-17T06:19:00.103Z,51.65
2022-08-17T06:21:32.827Z,51.53
2022-08-17T06:24:08.258Z,54.72
2022-08-17T06:26:42.936Z,56.40
2022-08-17T06:29:35.403Z,54.42
2022-08-17T06:32:03.434Z,53.13
2022-08-17T06:34:31.672Z,54.85
2022-08-17T06:37:20.070Z,55.45
2022-08-17T06:39:59.798Z,55.30
2022-08-17T06:42:54.619Z,55.33
2022-08-17T06:45:40.892Z,50.38
2022-08-17T06:51:33.406Z,48.63
2022-08-17T06:54:11.194Z,49.97
2022-08-17T06:56:55.327Z,46.38
2022-08-17T06:59:56.712Z,46.70
2022-08-17T07:02:52.729Z,45.33
2022-08-17T07:05:38.950Z,45.00
2022-08-17T07:08:27.709Z,40.40
2022-08-17T07:11:01.169Z,40.17
2022-08-17T07:13:53.411Z,41.10
2022-08-17T07:16:52.170Z,40.50
2022-08-17T07:19:22.619Z,38.67
2022-08-17T07:22:30.705Z,37.22
2022-08-17T07:25:18.738Z,36.15
2022-08-17T07:27:53.057Z,34.58
2022-08-17T07:30:27.803Z,34.97
2022-08-17T07:32:59.951Z,32.25
2022-08-17T07:35:31.296Z,34.38
2022-08-17T07:38:25.626Z,32.05
2022-08-17T07:40:57.670Z,33.17
2022-08-17T07:43:34.861Z,34.40
2022-08-17T07:46:46.200Z,33.55
2022-08-17T07:49:12.925Z,34.50
2022-08-17T07:51:42.722Z,35.05
2022-08-17T07:54:15.494Z,34.92
2022-08-17T07:56:48.783Z,35.80
2022-08-17T07:59:23.740Z,36.65
2022-08-17T08:01:57.936Z,37.03
2022-08-17T08:04:59.097Z,36.75
2022-08-17T08:07:31.998Z,38.30
2022-08-17T08:10:05.265Z,37.05
2022-08-17T08:12:34.513Z,37.97
2022-08-17T08:15:10.132Z,37.35
2022-08-17T08:17:51.970Z,38.20
2022-08-17T08:20:42.407Z,39.35
2022-08-17T08:23:20.136Z,36.35
2022-08-17T08:26:09.771Z,36.20
2022-08-17T08:29:08.345Z,36.58
2022-08-17T08:31:54.790Z,36.10
2022-08-17T08:34:44.553Z,35.40
2022-08-17T08:37:33.718Z,35.60
2022-08-17T08:40:11.429Z,36.45
2022-08-17T08:43:04.982Z,36.17
2022-08-17T08:45:47.120Z,35.53
2022-08-17T08:48:55.690Z,36.65
2022-08-17T08:51:39.886Z,36.90
2022-08-17T08:54:35.260Z,36.83
2022-08-17T08:57:32.884Z,37.50
2022-08-17T09:00:20.145Z,36.78
2022-08-17T09:03:32.407Z,36.45
2022-08-17T09:06:33.363Z,36.33
2022-08-17T09:09:04.895Z,33.50
2022-08-17T09:12:03.655Z,32.13
2022-08-17T09:14:46.418Z,33.42
2022-08-17T09:17:25.397Z,34.22
2022-08-17T09:19:59.496Z,35.15
2022-08-17T09:22:32.397Z,31.05
2022-08-17T09:25:03.864Z,33.75
2022-08-17T09:27:58.520Z,33.55
2022-08-17T09:30:36.325Z,34.90
2022-08-17T09:33:08.922Z,34.25
2022-08-17T09:35:44.527Z,34.97
2022-08-17T09:38:35.589Z,33.85
2022-08-17T09:41:25.424Z,31.60
2022-08-17T09:43:55.056Z,32.20
2022-08-17T09:46:38.851Z,27.17
2022-08-17T09:49:09.878Z,29.52
2022-08-17T09:51:52.230Z,29.60
2022-08-17T09:54:42.018Z,28.08
2022-08-17T09:57:29.957Z,29.13
2022-08-17T10:00:27.898Z,27.05
2022-08-17T10:03:04.510Z,28.77
2022-08-17T10:05:46.372Z,27.58
2022-08-17T10:08:52.329Z,25.70
2022-08-17T10:12:05.517Z,25.90
2022-08-17T10:14:55.148Z,24.05
2022-08-17T10:17:50.694Z,25.17
2022-08-17T10:20:25.690Z,23.80
2022-08-17T10:23:21.481Z,22.27
2022-08-17T10:26:15.478Z,21.85
2022-08-17T10:28:45.254Z,25.75
2022-08-17T10:31:34.830Z,24.88
2022-08-17T10:34:27.151Z,27.65
2022-08-17T10:36:59.686Z,28.50
2022-08-17T10:39:30.626Z,28.38
2022-08-17T10:42:03.121Z,26.63
2022-08-17T10:44:47.021Z,28.02
2022-08-17T10:47:17.035Z,29.55
2022-08-17T10:49:49.479Z,31.05
2022-08-17T10:52:30.490Z,31.45
2022-08-17T10:55:14.207Z,32.28
2022-08-17T10:57:44.793Z,31.77
2022-08-17T11:00:17.835Z,35.22
2022-08-17T11:02:57.586Z,33.55
2022-08-17T11:05:50.384Z,36.08
2022-08-17T11:08:26.597Z,36.42
2022-08-17T11:11:01.294Z,35.63
2022-08-17T11:13:37.871Z,35.63
2022-08-17T11:16:23.226Z,33.40
2022-08-17T11:19:14.116Z,31.85
2022-08-17T11:22:19.594Z,38.63
2022-08-17T11:24:49.132Z,33.58
2022-08-17T11:27:27.957Z,33.72
2022-08-17T11:30:08.352Z,35.28
2022-08-17T11:32:47.802Z,32.30
2022-08-17T11:35:21.248Z,34.25
2022-08-17T11:37:50.781Z,30.75
2022-08-17T11:40:17.594Z,35.20
2022-08-17T11:42:56.895Z,35.97
2022-08-17T11:45:33.092Z,33.72
2022-08-17T11:48:36.783Z,36.35
2022-08-17T11:51:24.803Z,33.65
2022-08-17T11:54:03.604Z,35.00
2022-08-17T11:56:46.430Z,36.28
2022-08-17T11:59:39.191Z,35.30
2022-08-17T12:02:34.959Z,33.33
2022-08-17T12:05:17.051Z,36.67
2022-08-17T12:08:04.023Z,34.83
2022-08-17T12:10:35.499Z,33.40
2022-08-17T12:13:15.596Z,31.23
2022-08-17T12:15:50.462Z,29.95
2022-08-17T12:18:30.745Z,28.25
2022-08-17T12:21:09.589Z,26.50
2022-08-17T12:23:57.516Z,23.92
2022-08-17T12:26:33.525Z,25.83
2022-08-17T12:29:03.946Z,20.98
2022-08-17T12:31:44.264Z,18.40
2022-08-17T12:34:19.097Z,18.88
2022-08-17T12:36:50.274Z,17.50
2022-08-17T12:39:24.929Z,18.40
2022-08-17T12:42:01.924Z,17.63
2022-08-17T12:44:31.309Z,17.52
2022-08-17T12:47:07.560Z,18.85
2022-08-17T12:49:36.963Z,18.27
2022-08-17T12:52:13.765Z,19.95
2022-08-17T12:55:00.387Z,18.15
2022-08-17T12:57:33.153Z,20.75
2022-08-17T13:00:16.329Z,20.58
2022-08-17T13:02:53.026Z,20.83
2022-08-17T13:05:54.553Z,21.15
2022-08-17T13:08:39.208Z,21.98
2022-08-17T13:11:26.364Z,21.67
2022-08-17T13:13:56.206Z,23.08
2022-08-17T13:16:30.754Z,21.20
2022-08-17T13:19:15.136Z,21.02
2022-08-17T13:21:57.894Z,23.10
2022-08-17T13:24:30.720Z,23.70
2022-08-17T13:27:08.051Z,21.83
2022-08-17T13:29:40.753Z,21.77
2022-08-17T13:32:11.563Z,24.70
2022-08-17T13:35:12.306Z,23.83
2022-08-17T13:37:36.434Z,22.85
2022-08-17T13:40:09.273Z,23.17
2022-08-17T13:42:50.184Z,19.75
2022-08-17T13:45:36.743Z,21.58
2022-08-17T13:48:18.942Z,21.77
2022-08-17T13:50:49.553Z,21.20
2022-08-17T13:53:23.242Z,19.95
2022-08-17T13:56:37.167Z,22.10
2022-08-17T13:59:05.586Z,19.45
2022-08-17T14:01:37.873Z,19.88
2022-08-17T14:04:08.397Z,19.95
2022-08-17T14:07:12.538Z,22.02
2022-08-17T14:09:50.166Z,24.25
2022-08-17T14:12:23.467Z,22.35
2022-08-17T14:14:50.745Z,22.77
2022-08-17T14:17:18.868Z,22.83
2022-08-17T14:19:45.690Z,22.55
2022-08-17T14:22:22.732Z,24.73
2022-08-17T14:24:51.294Z,25.15
2022-08-17T14:27:20.424Z,24.08
2022-08-17T14:29:47.778Z,26.33
2022-08-17T14:32:27.669Z,27.25
2022-08-17T14:34:57.660Z,27.02
2022-08-17T14:37:27.988Z,27.02
2022-08-17T14:39:56.623Z,26.67
2022-08-17T14:42:25.882Z,25.38
2022-08-17T14:44:54.384Z,25.55
2022-08-17T14:47:22.002Z,27.20
2022-08-17T14:49:49.332Z,27.80
2022-08-17T14:52:21.757Z,25.02
2022-08-17T14:54:51.368Z,26.20
2022-08-17T14:57:34.306Z,27.60
2022-08-17T15:00:02.137Z,25.90
2022-08-17T15:02:30.863Z,25.45
2022-08-17T15:05:06.035Z,26.83
2022-08-17T15:07:32.907Z,28.70
2022-08-17T15:10:01.404Z,27.70
2022-08-17T15:12:33.084Z,27.85
2022-08-17T15:15:01.411Z,30.23
2022-08-17T15:17:54.960Z,29.48
2022-08-17T15:20:18.739Z,28.30
2022-08-17T15:22:49.755Z,28.65
2022-08-17T15:25:17.727Z,32.33
2022-08-17T15:27:44.816Z,33.35
2022-08-17T15:30:12.230Z,34.45
2022-08-17T15:32:50.873Z,34.33
2022-08-17T15:35:27.558Z,31.70
2022-08-17T15:38:11.219Z,33.80
2022-08-17T15:40:42.578Z,34.80
2022-08-17T15:43:12.700Z,38.72
2022-08-17T15:45:40.467Z,34.42
2022-08-17T15:48:07.546Z,19.83
2022-08-17T15:50:34.456Z,16.13
2022-08-17T15:53:02.281Z,13.40
2022-08-17T15:55:31.168Z,14.38
2022-08-17T15:57:58.178Z,13.27
2022-08-17T16:00:26.026Z,15.95
2022-08-17T16:03:36.031Z,18.45
2022-08-17T16:05:41.422Z,18.67
2022-08-17T16:08:09.042Z,18.92
2022-08-17T16:10:36.457Z,18.38
2022-08-17T16:13:04.425Z,18.27
2022-08-17T16:15:31.979Z,17.40
2022-08-17T16:17:59.631Z,16.25
2022-08-17T16:20:27.133Z,16.75
2022-08-17T16:22:54.991Z,19.25
2022-08-17T16:25:49.707Z,17.77
2022-08-17T16:28:16.019Z,16.48
2022-08-17T16:30:43.296Z,14.27
2022-08-17T16:33:15.081Z,17.02
2022-08-17T16:35:42.161Z,11.80
2022-08-17T16:38:09.530Z,10.77
2022-08-17T16:40:38.115Z,10.75
2022-08-17T16:43:10.549Z,9.57
2022-08-17T16:45:40.497Z,10.02
2022-08-17T16:48:08.580Z,10.35
2022-08-17T16:50:36.570Z,10.68
2022-08-17T16:53:17.106Z,9.85
2022-08-17T16:55:48.441Z,9.38
2022-08-17T16:58:15.994Z,9.30
2022-08-17T17:00:46.149Z,9.32
2022-08-17T17:03:20.610Z,10.55
2022-08-17T17:06:03.518Z,9.40
2022-08-17T17:08:40.688Z,10.45
2022-08-17T17:11:18.282Z,9.90
2022-08-17T17:14:11.050Z,9.70
2022-08-17T17:16:51.779Z,10.35
2022-08-17T17:19:34.972Z,9.20
2022-08-17T17:22:13.076Z,8.82
2022-08-17T17:24:50.793Z,7.78
2022-08-17T17:27:20.549Z,6.07
2022-08-17T17:30:15.406Z,5.85
2022-08-17T17:33:06.190Z,6.15
2022-08-17T17:35:44.368Z,6.03
2022-08-17T17:38:29.126Z,6.18
2022-08-17T17:41:02.501Z,6.63
2022-08-17T17:43:40.011Z,6.72
2022-08-17T17:46:29.152Z,7.40
2022-08-17T17:49:00.498Z,8.23
2022-08-17T17:52:10.256Z,6.30
2022-08-17T17:54:42.817Z,7.53
2022-08-17T17:57:39.008Z,6.47
2022-08-17T18:00:24.328Z,5.82
2022-08-17T18:03:01.270Z,6.35
2022-08-17T18:05:37.347Z,6.75
2022-08-17T18:08:51.987Z,6.35
2022-08-17T18:11:34.991Z,7.95
2022-08-17T18:14:32.616Z,8.00
2022-08-17T18:17:00.716Z,10.00
2022-08-17T18:19:29.499Z,9.00
2022-08-17T18:22:02.246Z,9.80
2022-08-17T18:24:38.587Z,10.70
2022-08-17T18:27:30.866Z,17.67
2022-08-17T18:30:20.051Z,12.18
2022-08-17T18:32:47.459Z,11.82
2022-08-17T18:35:14.405Z,12.15
2022-08-17T18:37:45.985Z,9.77
2022-08-17T18:40:19.071Z,12.40
2022-08-17T18:42:59.029Z,8.43
2022-08-17T18:45:38.164Z,8.82
2022-08-17T18:48:16.712Z,8.90
2022-08-17T18:50:43.644Z,8.40
2022-08-17T18:53:33.537Z,9.00
2022-08-17T18:56:21.302Z,9.27
2022-08-17T18:59:19.034Z,8.95
2022-08-17T19:02:27.221Z,9.73
2022-08-17T19:05:37.310Z,9.02
2022-08-17T19:08:28.453Z,9.23
2022-08-17T19:11:09.617Z,9.80
2022-08-17T19:13:47.543Z,8.95
2022-08-17T19:16:22.635Z,9.25
2022-08-17T19:19:09.754Z,9.90
2022-08-17T19:21:45.181Z,11.00
2022-08-17T19:24:11.929Z,9.40
2022-08-17T19:26:54.826Z,9.70
2022-08-17T19:29:53.725Z,9.68
2022-08-17T19:32:25.482Z,9.82
2022-08-17T19:34:52.854Z,9.95
2022-08-17T19:37:57.257Z,10.20
2022-08-17T19:40:53.548Z,9.93
2022-08-17T19:43:33.240Z,9.75
2022-08-17T19:46:15.032Z,9.57
2022-08-17T19:49:06.308Z,10.75
2022-08-17T19:52:13.897Z,11.27
2022-08-17T19:54:47.914Z,11.60
2022-08-17T19:57:33.987Z,11.15
2022-08-17T20:00:04.029Z,11.32
2022-08-17T20:02:42.858Z,12.52
2022-08-17T20:05:30.742Z,12.38
2022-08-17T20:08:00.553Z,12.23
2022-08-17T20:10:59.507Z,12.20
2022-08-17T20:13:39.112Z,12.85
2022-08-17T20:16:06.865Z,13.05
2022-08-17T20:18:47.597Z,12.85
2022-08-17T20:21:40.352Z,14.57
2022-08-17T20:24:37.078Z,14.07
2022-08-17T20:27:13.491Z,13.25
2022-08-17T20:30:04.806Z,14.10
2022-08-17T20:32:56.130Z,12.95
2022-08-17T20:35:40.246Z,13.48
2022-08-17T20:38:11.805Z,13.85
2022-08-17T20:41:04.278Z,13.43
2022-08-17T20:43:34.197Z,13.50
2022-08-17T20:46:34.827Z,13.35
2022-08-17T20:49:54.665Z,14.48
2022-08-17T20:52:52.276Z,13.95
2022-08-17T20:55:34.319Z,17.05
2022-08-17T20:58:17.139Z,15.93
2022-08-17T21:00:48.696Z,13.93
2022-08-17T21:03:24.200Z,15.00
2022-08-17T21:10:55.838Z,12.73
2022-08-17T21:13:39.445Z,12.52
2022-08-17T21:16:21.291Z,13.68
2022-08-17T21:19:00.413Z,13.48
2022-08-17T21:21:52.110Z,14.45
2022-08-17T21:24:19.413Z,13.45
2022-08-17T21:27:11.526Z,14.43
2022-08-17T21:29:53.551Z,13.43
2022-08-17T21:32:29.795Z,13.40
2022-08-17T21:35:28.683Z,12.70
2022-08-17T21:38:05.056Z,13.57
2022-08-17T21:40:34.099Z,12.20
2022-08-17T21:43:41.119Z,12.23
2022-08-17T21:46:28.537Z,11.73
2022-08-17T21:49:02.307Z,12.50
2022-08-17T21:51:37.805Z,12.48
2022-08-17T21:54:39.804Z,12.50
2022-08-17T21:57:16.575Z,12.02
2022-08-17T21:59:44.301Z,12.93
2022-08-17T22:02:21.493Z,13.60
2022-08-17T22:05:15.290Z,12.95
2022-08-17T22:07:48.129Z,11.98
2022-08-17T22:10:49.004Z,11.48
2022-08-17T22:13:18.543Z,10.93
2022-08-17T22:16:28.884Z,12.23
2022-08-17T22:19:00.384Z,11.82
2022-08-17T22:21:27.664Z,13.93
2022-08-17T22:24:04.514Z,11.73
2022-08-17T22:27:00.180Z,10.57
2022-08-17T22:29:57.665Z,12.90
2022-08-17T22:32:46.429Z,12.75
2022-08-17T22:35:28.735Z,12.52
2022-08-17T22:38:20.461Z,12.45
2022-08-17T22:40:51.004Z,12.23
2022-08-17T22:43:26.395Z,10.93
2022-08-17T22:46:00.049Z,11.55
2022-08-17T22:48:29.396Z,12.55
2022-08-17T22:51:13.535Z,13.60
2022-08-17T22:54:15.677Z,13.60
2022-08-17T22:57:18.761Z,15.52
2022-08-17T22:59:51.821Z,11.07
2022-08-17T23:02:21.052Z,11.43
2022-08-17T23:04:52.452Z,10.02
2022-08-17T23:07:20.781Z,10.15
2022-08-17T23:09:47.697Z,9.57
2022-08-17T23:12:26.408Z,10.15
2022-08-17T23:15:00.452Z,8.70
2022-08-17T23:17:36.909Z,10.85
2022-08-17T23:20:08.355Z,11.25
2022-08-17T23:22:37.921Z,10.27
2022-08-17T23:25:26.801Z,10.65
2022-08-17T23:27:54.509Z,14.65
2022-08-17T23:30:27.207Z,13.90
2022-08-17T23:32:55.850Z,11.57
2022-08-17T23:35:39.159Z,11.10
2022-08-17T23:38:12.392Z,10.18
2022-08-17T23:40:40.528Z,10.55
2022-08-17T23:43:24.506Z,10.73
2022-08-17T23:45:56.191Z,9.50
2022-08-17T23:48:28.567Z,10.77
2022-08-17T23:51:10.918Z,9.20
2022-08-17T23:53:44.749Z,9.43
2022-08-17T23:56:11.930Z,8.70
2022-08-17T23:58:42.366Z,10.05
